C. Budejovice-Roznov, República Checa

10:48 AM CEST en Agosto 29, 2016 (GMT +0200)
Jiráskova | | Change Station

Alt 1482 ft 48.92 °N, 14.45 °E | Updated 5 minutes ago

Mostly Cloudy
Muy nublado
65.3 ° F
Sensación térmica 65.3 ° F
N
0.0
Viento Variable Viento desde Norte
Gusts 1.2 mph

Hoy
Alta -- | Baja -- ° F
--% Posibilidad de precipitaciones
Ayer
Alta -- | Baja -- ° F
Precip. -- pul
Presión 30.09 pul
Visibilidad 6.2 Millas
Nubes Baja 1800 ft
Nubes dispersas 7500 ft
Muy nublado 14000 ft
Punto de rocío 62 ° F
Humedad 89%
Precipitaciones 0.05 pul
Espesor de la nieve No disponible.
6:14 AM 7:50 PM
Creciente menguante, 10% visible
METAR LOWL 290820Z 31006KT 9999 FEW018 SCT075 BKN140 21/17 Q1019 RERA NOSIG
Presión 30.09 pul
Visibilidad 6.2 Millas
Nubes Baja 1800 ft
Nubes dispersas 7500 ft
Muy nublado 14000 ft
Punto de rocío 62 ° F
Humedad 89%
Precipitaciones 0.05 pul
Espesor de la nieve No disponible.
6:14 AM 7:50 PM
Creciente menguante, 10% visible
METAR LOWL 290820Z 31006KT 9999 FEW018 SCT075 BKN140 21/17 Q1019 RERA NOSIG

10-Day Weather Forecast

×

Almanac

Astronomía

Aug. 29, 2016 Salida Puesta
Hora real
Crepúsculo civil
Crepúsculo náutico
Crepúsculo astronómico
Luna
Horas de luz
Horas de luz
Tomorrow will be .
, % of the Moon is Illuminated

Extremos de hoy

Máximos del país Bajas del país

Community

WunderPhotos

Upload Photos

1,935,800 ¡fotos cargadas!

WunderBlog® & News

Nearby

Calidad del aire

  Calidad del aire Índice AQ Contaminante
Not available.

Grosos de nieve

Estación Profundido Altura

Actividad de terremotos

Ciudad Distance Mag. Tiempo y dato
Magnitud mínima muestra es 2,5.

Temperaturas de aguas costeras

Lugar Temperatura

Stations

Estaciones meteorológicas cercanas

Ubicación de la estación Temp. Vientos helados Punto de rocío Humedad Viento Precip. Alt Actualizado Tipo